Clinton, IA (52732)

12:05 AM CST on February 08, 2016 (GMT -0600)
Mayer Farm @ Eagle Point | | Change Station
CLOSE
Current Station
Personal Weather Station
Location: Clinton, IA
Elevation: 745 ft
Nearby Weather Stations

Elev 745 ft 41.89 °N, 90.19 °W | Updated 9 minutes ago

Overcast
Overcast
33.4 °F
Feels Like 25 °F
N
11.0
Wind Variable Wind from WSW
Gusts 16.0 mph

Today
High -- | Low -- °F
--% Chance of Precip.
Yesterday
High -- | Low -- °F
Precip. -- in
Pressure 29.79 in
Visibility 10.0 miles
Clouds Overcast 1300 ft
Windchill 25 °F
Dew Point 31 °F
Humidity 92%
Rainfall in
Snow Depth Not available.
7:06 AM 5:24 PM
Waning Crescent, 0% visible
METAR KCWI 080556Z AUTO 26011KT 10SM OVC013 01/M01 A2970 RMK AO2 SLP087 T00061006 10011 21006 400671006 56011 FZRANO
Pressure 29.79 in
Visibility 10.0 miles
Clouds Overcast 1300 ft
Windchill 25 °F
Dew Point 31 °F
Humidity 92%
Rainfall in
Snow Depth Not available.
7:06 AM 5:24 PM
Waning Crescent, 0% visible
METAR KCWI 080556Z AUTO 26011KT 10SM OVC013 01/M01 A2970 RMK AO2 SLP087 T00061006 10011 21006 400671006 56011 FZRANO

10-Day Weather Forecast

Almanac

Astronomy

Feb. 08, 2016 Rise Set
Actual Time
Civil Twilight
Nautical Twilight
Astronomical Twilight
Moon
Length of Visible Light
Length of Day
Tomorrow will be .
, % of the Moon is Illuminated

Today's Extremes

State Highs State Lows

Community

WunderPhotos

Upload Photos

1,891,392 photos uploaded!

WunderBlog® & News

Nearby

Air Quality

  Air Quality AQ Index Pollutant
Not available.

Snow Depth

Station Depth Elevation

Earthquake Activity

City Distance Mag. Time & Date
Minimum magnitude displayed is 2.5.

Coastal Water Temperatures

Place Temperature

Stations

Nearby Weather Stations

Station Location Temp. Windchill Dew Point Humidity Wind Precip. Elev Updated Type
                   

Watches & Warnings

There are currently no watches in effect.